Terminal Aerodrome Forecast
Issued by NWS Greer, SC

Home | Current Version | Previous Version | Text Only | Print | Product List | Glossary On
Versions: 1 2 3 4 5 6 7 8 9 10 11 12 13 14 15 16 17 18 19 20 21 22 23 24 25 26 27 28 29 30 31 32 33 34 35 36 37 38 39 40 41 42 43 44 45 46 47 48
555
FTUS42 KGSP 051509 AAB
TAFCLT
TAF AMD
KCLT 051509Z 0515/0612 02004KT P6SM SCT004 BKN250
      TEMPO 0515/0517 BKN004
     FM051700 02003KT P6SM BKN040
     FM060200 06005KT P6SM -RA OVC050
     FM060400 07006KT 5SM -RA OVC030
     FM060700 06008KT 3SM RA BR OVC015
     FM060900 05009G16KT 3SM RA BR OVC008=

USA.gov is the U.S. government's official web portal to all federal, state and local government web resources and services.